createdAt,value
2019-02-14T00:01:50.787Z,8.80
2019-02-14T00:04:20.256Z,8.60
2019-02-14T00:06:49.703Z,8.40
2019-02-14T00:09:19.110Z,8.40
2019-02-14T00:11:48.521Z,8.50
2019-02-14T00:14:17.984Z,8.50
2019-02-14T00:16:47.475Z,8.60
2019-02-14T00:19:16.996Z,8.80
2019-02-14T00:21:46.463Z,8.80
2019-02-14T00:24:15.840Z,8.70
2019-02-14T00:26:45.220Z,8.70
2019-02-14T00:29:14.696Z,8.70
2019-02-14T00:31:44.139Z,8.70
2019-02-14T00:34:13.502Z,8.60
2019-02-14T00:36:42.887Z,8.50
2019-02-14T00:39:12.349Z,8.50
2019-02-14T00:41:41.695Z,8.60
2019-02-14T00:44:23.818Z,8.60
2019-02-14T00:46:53.162Z,8.70
2019-02-14T00:49:22.491Z,8.60
2019-02-14T00:51:51.867Z,8.60
2019-02-14T00:54:21.323Z,8.60
2019-02-14T00:56:50.687Z,8.50
2019-02-14T00:59:20.108Z,8.60
2019-02-14T01:01:49.514Z,8.50
2019-02-14T01:04:18.838Z,8.40
2019-02-14T01:06:48.218Z,8.40
2019-02-14T01:09:17.755Z,8.30
2019-02-14T01:11:47.217Z,8.30
2019-02-14T01:14:16.534Z,8.30
2019-02-14T01:16:46.055Z,8.30
2019-02-14T01:19:15.582Z,8.40
2019-02-14T01:21:44.914Z,8.30
2019-02-14T01:24:14.354Z,8.20
2019-02-14T01:26:43.784Z,8.30
2019-02-14T01:29:13.184Z,8.20
2019-02-14T01:31:42.769Z,8.20
2019-02-14T01:34:12.242Z,8.10
2019-02-14T01:36:41.701Z,8.20
2019-02-14T01:39:11.177Z,8.20
2019-02-14T01:41:40.499Z,8.20
2019-02-14T01:44:10.028Z,8.20
2019-02-14T01:46:39.572Z,8.20
2019-02-14T01:49:09.328Z,8.00
2019-02-14T01:51:38.669Z,7.90
2019-02-14T01:54:08.062Z,7.70
2019-02-14T01:56:37.452Z,7.70
2019-02-14T01:59:06.774Z,7.70
2019-02-14T02:01:36.120Z,7.70
2019-02-14T02:04:05.435Z,7.70
2019-02-14T02:06:34.836Z,7.80
2019-02-14T02:09:06.998Z,7.80
2019-02-14T02:11:36.556Z,7.70
2019-02-14T02:14:06.031Z,7.80
2019-02-14T02:16:35.512Z,7.70
2019-02-14T02:19:04.904Z,7.60
2019-02-14T02:21:34.408Z,7.70
2019-02-14T02:24:04.557Z,7.70
2019-02-14T02:26:35.171Z,7.80
2019-02-14T02:29:04.508Z,7.70
2019-02-14T02:31:33.976Z,7.80
2019-02-14T02:34:03.429Z,7.80
2019-02-14T02:36:32.806Z,7.70
2019-02-14T06:08:17.780Z,7.10
2019-02-14T06:10:47.232Z,7.10
2019-02-14T06:13:16.489Z,7.10
2019-02-14T06:15:46.086Z,6.80
2019-02-14T06:18:15.525Z,6.40
2019-02-14T06:20:44.834Z,6.30
2019-02-14T06:23:14.442Z,6.10
2019-02-14T06:25:43.848Z,6.00
2019-02-14T06:28:13.224Z,6.00
2019-02-14T06:30:42.730Z,6.10
2019-02-14T06:33:12.184Z,6.20
2019-02-14T06:35:41.980Z,6.10
2019-02-14T06:38:11.398Z,6.10
2019-02-14T06:40:40.786Z,6.30
2019-02-14T06:43:10.180Z,6.50
2019-02-14T06:45:39.683Z,6.70
2019-02-14T06:48:09.398Z,6.60
2019-02-14T06:50:38.856Z,6.80
2019-02-14T06:53:08.386Z,6.70
2019-02-14T06:55:37.926Z,6.30
2019-02-14T06:58:07.321Z,6.30
2019-02-14T07:00:36.887Z,6.30
2019-02-14T07:03:06.305Z,6.40
2019-02-14T07:05:35.626Z,6.40
2019-02-14T07:08:05.064Z,6.50
2019-02-14T07:10:34.523Z,6.80
2019-02-14T07:13:04.005Z,6.80
2019-02-14T07:15:33.429Z,6.90
2019-02-14T07:18:02.899Z,7.10
2019-02-14T07:20:32.288Z,7.30
2019-02-14T07:23:01.656Z,7.20
2019-02-14T07:25:31.112Z,7.20
2019-02-14T07:28:00.481Z,7.30
2019-02-14T07:30:29.939Z,7.50
2019-02-14T07:32:59.338Z,8.00
2019-02-14T07:35:28.651Z,8.20
2019-02-14T07:37:58.195Z,9.30
2019-02-14T07:40:27.723Z,10.10
2019-02-14T07:42:57.128Z,11.30
2019-02-14T07:45:26.485Z,12.30
2019-02-14T07:47:55.965Z,13.50
2019-02-14T07:50:25.458Z,14.90
2019-02-14T07:52:54.967Z,15.90
2019-02-14T07:55:24.437Z,16.80
2019-02-14T07:57:53.833Z,17.10
2019-02-14T08:00:23.291Z,17.10
2019-02-14T08:02:52.696Z,16.90
2019-02-14T08:05:22.142Z,17.50
2019-02-14T08:07:51.649Z,17.90
2019-02-14T08:10:21.022Z,17.40
2019-02-14T08:12:50.449Z,16.60
2019-02-14T08:15:19.990Z,16.30
2019-02-14T08:17:49.303Z,16.30
2019-02-14T08:20:20.469Z,16.50
2019-02-14T08:22:50.047Z,18.10
2019-02-14T08:25:19.504Z,15.80
2019-02-14T08:27:50.546Z,13.70
2019-02-14T08:30:20.838Z,12.10
2019-02-14T08:32:50.246Z,11.00
2019-02-14T08:35:20.520Z,10.80
2019-02-14T08:37:49.896Z,11.10
2019-02-14T08:40:24.552Z,11.30
2019-02-14T08:42:54.469Z,11.50
2019-02-14T08:45:23.814Z,11.70
2019-02-14T08:47:53.170Z,12.20
2019-02-14T08:50:22.728Z,12.60
2019-02-14T08:52:52.123Z,13.00
2019-02-14T08:55:21.462Z,13.50
2019-02-14T08:57:50.808Z,13.70
2019-02-14T09:00:20.237Z,13.90
2019-02-14T09:02:49.618Z,14.30
2019-02-14T09:05:18.984Z,14.70
2019-02-14T09:07:54.322Z,14.70
2019-02-14T09:10:19.426Z,14.80
2019-02-14T09:12:48.865Z,14.60
2019-02-14T09:15:18.272Z,14.90
2019-02-14T09:17:47.675Z,14.90
2019-02-14T09:20:19.240Z,15.20
2019-02-14T09:22:48.683Z,15.70
2019-02-14T09:25:18.145Z,15.70
2019-02-14T09:27:47.529Z,15.50
2019-02-14T09:30:16.992Z,15.70
2019-02-14T09:32:47.395Z,16.10
2019-02-14T09:35:16.859Z,16.30
2019-02-14T09:37:46.202Z,16.30
2019-02-14T09:40:18.474Z,16.40
2019-02-14T09:42:47.818Z,16.40
2019-02-14T09:45:17.414Z,16.50
2019-02-14T09:47:46.851Z,16.70
2019-02-14T09:50:16.268Z,16.80
2019-02-14T09:52:45.736Z,18.90
2019-02-14T09:55:15.244Z,22.00
2019-02-14T09:57:44.591Z,26.30
2019-02-14T10:00:18.124Z,28.80
2019-02-14T10:02:48.600Z,29.70
2019-02-14T10:05:17.976Z,30.50
2019-02-14T10:07:47.729Z,29.90
2019-02-14T10:10:22.354Z,30.10
2019-02-14T10:12:52.686Z,30.60
2019-02-14T10:15:22.012Z,31.00
2019-02-14T10:17:51.342Z,30.60
2019-02-14T10:20:20.854Z,31.40
2019-02-14T10:22:50.182Z,32.40
2019-02-14T10:25:19.643Z,31.30
2019-02-14T10:27:49.462Z,31.50
2019-02-14T10:30:23.800Z,32.10
2019-02-14T10:32:53.159Z,31.80
2019-02-14T10:35:22.548Z,32.40
2019-02-14T10:37:52.104Z,32.00
2019-02-14T10:40:21.484Z,32.40
2019-02-14T10:42:51.245Z,32.60
2019-02-14T10:45:22.589Z,32.80
2019-02-14T10:47:52.083Z,33.70
2019-02-14T10:50:21.483Z,33.60
2019-02-14T10:52:50.805Z,32.70
2019-02-14T10:55:20.153Z,33.60
2019-02-14T10:57:49.560Z,33.80
2019-02-14T11:00:26.239Z,33.20
2019-02-14T11:02:55.636Z,32.30
2019-02-14T11:05:25.054Z,31.90
2019-02-14T11:07:54.792Z,31.80
2019-02-14T11:10:24.148Z,31.70
2019-02-14T11:12:53.615Z,31.20
2019-02-14T11:15:25.228Z,31.60
2019-02-14T11:17:54.782Z,31.00
2019-02-14T11:20:24.289Z,30.80
2019-02-14T11:22:53.817Z,31.60
2019-02-14T11:25:26.339Z,31.60
2019-02-14T11:27:55.724Z,32.30
2019-02-14T11:30:25.223Z,33.00
2019-02-14T11:32:54.767Z,33.20
2019-02-14T11:35:24.409Z,33.90
2019-02-14T11:37:53.905Z,33.50
2019-02-14T11:40:23.464Z,32.80
2019-02-14T11:42:52.989Z,32.40
2019-02-14T11:45:23.999Z,31.70
2019-02-14T11:47:53.586Z,31.70
2019-02-14T11:50:23.133Z,31.50
2019-02-14T11:52:52.594Z,31.00
2019-02-14T11:55:22.082Z,28.50
2019-02-14T11:57:52.528Z,24.30
2019-02-14T12:00:24.650Z,21.40
2019-02-14T12:02:56.022Z,19.70
2019-02-14T12:05:25.134Z,18.70
2019-02-14T12:07:55.737Z,18.00
2019-02-14T12:10:26.290Z,17.50
2019-02-14T12:12:55.695Z,17.30
2019-02-14T12:15:25.285Z,17.10
2019-02-14T12:17:55.098Z,17.00
2019-02-14T12:20:24.481Z,17.00
2019-02-14T12:22:54.197Z,16.70
2019-02-14T12:25:26.506Z,16.70
2019-02-14T12:27:55.982Z,16.80
2019-02-14T12:30:25.347Z,16.60
2019-02-14T12:32:54.748Z,16.30
2019-02-14T12:35:24.290Z,15.90
2019-02-14T12:37:53.731Z,16.00
2019-02-14T12:40:23.052Z,15.90
2019-02-14T12:42:52.545Z,16.00
2019-02-14T12:45:26.059Z,16.00
2019-02-14T12:47:55.798Z,16.00
2019-02-14T12:50:25.366Z,16.00
2019-02-14T12:52:54.740Z,16.00
2019-02-14T12:55:25.215Z,16.00
2019-02-14T12:57:54.716Z,16.20
2019-02-14T13:00:24.607Z,16.00
2019-02-14T13:02:54.003Z,15.90
2019-02-14T13:05:23.466Z,15.90
2019-02-14T13:07:52.834Z,16.00
2019-02-14T13:10:22.317Z,16.20
2019-02-14T13:12:51.663Z,16.20
2019-02-14T13:15:27.691Z,16.10
2019-02-14T13:17:57.089Z,16.10
2019-02-14T13:20:26.561Z,16.20
2019-02-14T13:22:55.948Z,16.20
2019-02-14T13:25:25.279Z,16.20
2019-02-14T13:27:54.757Z,16.20
2019-02-14T13:30:25.797Z,16.30
2019-02-14T13:32:55.220Z,16.30
2019-02-14T13:35:24.711Z,16.20
2019-02-14T13:37:54.278Z,16.00
2019-02-14T13:40:23.681Z,15.70
2019-02-14T13:42:53.146Z,15.70
2019-02-14T13:45:25.662Z,15.70
2019-02-14T13:47:55.150Z,15.70
2019-02-14T13:50:24.493Z,15.80
2019-02-14T13:52:53.955Z,16.10
2019-02-14T13:55:23.290Z,15.90
2019-02-14T13:57:53.209Z,15.70
2019-02-14T14:00:29.584Z,15.60
2019-02-14T14:02:59.005Z,15.60
2019-02-14T14:05:28.782Z,15.50
2019-02-14T14:07:59.196Z,15.70
2019-02-14T14:10:28.607Z,15.80
2019-02-14T14:12:57.939Z,15.80
2019-02-14T14:15:27.382Z,15.80
2019-02-14T14:17:56.807Z,15.80
2019-02-14T14:20:26.133Z,15.80
2019-02-14T14:22:55.657Z,15.80
2019-02-14T14:25:26.066Z,15.80
2019-02-14T14:27:55.487Z,15.90
2019-02-14T14:30:24.872Z,16.10
2019-02-14T14:32:54.322Z,16.30
2019-02-14T14:35:23.807Z,16.30
2019-02-14T14:37:53.336Z,16.40
2019-02-14T14:40:22.827Z,16.50
2019-02-14T14:42:53.840Z,16.60
2019-02-14T14:45:31.061Z,16.50
2019-02-14T14:48:00.485Z,16.50
2019-02-14T14:50:29.889Z,16.50
2019-02-14T14:52:59.290Z,16.50
2019-02-14T14:55:28.683Z,16.40
2019-02-14T14:57:58.017Z,16.40
2019-02-14T15:00:27.612Z,16.50
2019-02-14T15:02:57.017Z,16.40
2019-02-14T15:05:26.427Z,16.40
2019-02-14T15:07:56.832Z,16.20
2019-02-14T15:10:26.237Z,16.10
2019-02-14T15:12:55.654Z,16.20
2019-02-14T15:15:25.086Z,16.10
2019-02-14T15:17:54.879Z,16.00
2019-02-14T15:20:24.275Z,15.90
2019-02-14T15:22:53.868Z,15.80
2019-02-14T15:25:23.268Z,15.70
2019-02-14T15:27:52.648Z,15.70
2019-02-14T15:30:22.007Z,15.70
2019-02-14T15:32:51.486Z,15.70
2019-02-14T15:35:20.956Z,15.60
2019-02-14T15:37:50.354Z,15.50
2019-02-14T15:40:19.826Z,15.40
2019-02-14T15:42:49.226Z,15.40
2019-02-14T15:45:18.629Z,15.30
2019-02-14T15:47:47.951Z,15.30
2019-02-14T15:50:17.359Z,15.20
2019-02-14T15:52:46.802Z,15.10
2019-02-14T15:55:16.222Z,15.10
2019-02-14T15:57:45.689Z,15.00
2019-02-14T16:00:15.693Z,14.90
2019-02-14T16:02:45.117Z,15.00
2019-02-14T16:05:15.024Z,15.00
2019-02-14T16:07:45.552Z,15.00
2019-02-14T16:10:18.672Z,14.90
2019-02-14T16:12:46.050Z,14.70
2019-02-14T16:15:15.549Z,14.70
2019-02-14T16:17:44.863Z,14.60
2019-02-14T16:20:15.368Z,14.50
2019-02-14T16:22:45.674Z,14.40
2019-02-14T16:25:15.168Z,14.40
2019-02-14T16:27:46.411Z,14.20
2019-02-14T16:30:16.573Z,14.10
2019-02-14T16:32:46.423Z,14.00
2019-02-14T16:35:15.865Z,13.80
2019-02-14T16:37:46.531Z,13.70
2019-02-14T16:40:16.340Z,13.60
2019-02-14T16:42:45.764Z,13.50
2019-02-14T16:45:15.098Z,13.40
2019-02-14T16:47:44.477Z,13.40
2019-02-14T16:50:13.816Z,13.20
2019-02-14T16:52:43.221Z,13.00
2019-02-14T16:55:12.595Z,12.90
2019-02-14T16:57:41.910Z,12.60
2019-02-14T17:00:12.498Z,12.50
2019-02-14T17:02:43.157Z,12.40
2019-02-14T17:05:13.620Z,12.40
2019-02-14T17:07:43.040Z,12.30
2019-02-14T17:10:12.489Z,12.20
2019-02-14T17:12:41.968Z,12.10
2019-02-14T17:15:12.657Z,11.90
2019-02-14T17:17:42.592Z,11.80
2019-02-14T17:20:12.074Z,11.70
2019-02-14T17:22:41.522Z,11.70
2019-02-14T17:25:10.962Z,11.70
2019-02-14T17:27:40.292Z,11.60
2019-02-14T17:30:10.090Z,11.60
2019-02-14T17:32:39.549Z,11.50
2019-02-14T17:35:08.943Z,11.40
2019-02-14T17:37:38.340Z,11.30
2019-02-14T17:40:09.312Z,11.30
2019-02-14T17:42:38.781Z,11.20
2019-02-14T17:45:09.637Z,11.10
2019-02-14T17:47:39.062Z,11.10
2019-02-14T17:50:09.025Z,10.90
2019-02-14T17:52:38.507Z,10.90
2019-02-14T17:55:09.633Z,10.90
2019-02-14T17:57:39.105Z,10.90
2019-02-14T18:00:12.587Z,10.80
2019-02-14T18:02:41.979Z,10.80
2019-02-14T18:05:11.460Z,10.80
2019-02-14T18:07:40.900Z,10.70
2019-02-14T18:10:12.515Z,10.70
2019-02-14T18:12:42.006Z,10.70
2019-02-14T18:15:13.198Z,10.70
2019-02-14T18:17:43.786Z,10.70
2019-02-14T18:20:13.203Z,10.70
2019-02-14T18:22:42.588Z,10.70
2019-02-14T18:25:12.687Z,10.70
2019-02-14T18:27:42.002Z,10.70
2019-02-14T18:30:12.177Z,10.70
2019-02-14T18:32:41.594Z,10.80
2019-02-14T18:35:12.355Z,10.70
2019-02-14T18:37:41.706Z,10.50
2019-02-14T18:40:12.033Z,10.10
2019-02-14T18:42:46.389Z,10.30
2019-02-14T18:45:15.823Z,10.10
2019-02-14T18:47:45.309Z,10.20
2019-02-14T18:50:14.987Z,10.20
2019-02-14T18:52:45.415Z,10.20
2019-02-14T18:55:14.744Z,10.10
2019-02-14T18:57:44.126Z,10.00
2019-02-14T19:00:16.248Z,9.90
2019-02-14T19:02:45.569Z,9.90
2019-02-14T19:05:15.066Z,9.90
2019-02-14T19:07:44.572Z,9.90
2019-02-14T19:10:16.077Z,10.00
2019-02-14T19:12:45.532Z,10.00
2019-02-14T19:15:15.003Z,10.00
2019-02-14T19:17:44.397Z,10.10
2019-02-14T19:20:14.239Z,10.10
2019-02-14T19:22:43.553Z,10.00
2019-02-14T19:25:14.039Z,9.90
2019-02-14T19:27:43.526Z,9.90
2019-02-14T19:30:14.549Z,9.80
2019-02-14T19:32:44.299Z,10.00
2019-02-14T19:35:22.446Z,10.00
2019-02-14T19:37:44.607Z,10.10
2019-02-14T19:40:13.960Z,10.10
2019-02-14T19:42:43.428Z,10.10
2019-02-14T19:45:12.822Z,9.90
2019-02-14T19:47:42.234Z,9.80
2019-02-14T19:50:13.309Z,10.10
2019-02-14T19:52:42.726Z,11.00
2019-02-14T19:55:12.156Z,11.90
2019-02-14T19:57:41.497Z,12.60
2019-02-14T20:00:14.841Z,13.10
2019-02-14T20:02:44.162Z,13.60
2019-02-14T20:05:13.475Z,13.90
2019-02-14T20:07:42.906Z,14.20
2019-02-14T20:10:13.870Z,14.30
2019-02-14T20:12:43.262Z,14.50
2019-02-14T20:15:17.868Z,14.50
2019-02-14T20:17:47.350Z,14.60
2019-02-14T20:20:17.737Z,14.60
2019-02-14T20:22:47.092Z,14.70
2019-02-14T20:25:19.697Z,14.70
2019-02-14T20:27:50.077Z,14.70
2019-02-14T20:30:19.632Z,14.70
2019-02-14T20:32:49.014Z,14.70
2019-02-14T20:35:18.359Z,14.70
2019-02-14T20:37:47.704Z,14.70
2019-02-14T20:40:17.131Z,14.70
2019-02-14T20:42:46.433Z,14.70
2019-02-14T20:45:16.063Z,14.70
2019-02-14T20:47:45.435Z,14.70
2019-02-14T20:50:15.419Z,14.60
2019-02-14T20:52:44.918Z,14.60
2019-02-14T20:55:20.171Z,14.60
2019-02-14T20:57:49.698Z,14.60
2019-02-14T21:00:20.749Z,14.60
2019-02-14T21:02:50.499Z,14.60
2019-02-14T21:05:19.964Z,14.50
2019-02-14T21:07:49.363Z,14.60
2019-02-14T21:10:18.717Z,14.50
2019-02-14T21:12:48.130Z,14.50
2019-02-14T21:15:17.522Z,14.50
2019-02-14T21:17:46.884Z,14.50
2019-02-14T21:20:16.774Z,14.50
2019-02-14T21:22:46.242Z,14.50
2019-02-14T21:25:15.645Z,14.40
2019-02-14T21:27:46.162Z,14.40
2019-02-14T21:30:17.607Z,14.30
2019-02-14T21:35:52.761Z,14.30
2019-02-14T21:38:23.289Z,14.30
2019-02-14T21:40:52.716Z,14.20
2019-02-14T21:43:22.153Z,14.20
2019-02-14T21:45:51.571Z,14.20
2019-02-14T21:48:20.964Z,14.20
2019-02-14T21:50:50.597Z,14.20
2019-02-14T21:53:19.940Z,14.10
2019-02-14T21:55:49.430Z,14.10
2019-02-14T21:58:18.852Z,14.10
2019-02-14T22:00:48.191Z,14.10
2019-02-14T22:03:17.687Z,14.10
2019-02-14T22:05:47.090Z,14.10
2019-02-14T22:08:16.586Z,14.10
2019-02-14T22:10:45.978Z,14.10
2019-02-14T22:13:15.514Z,14.00
2019-02-14T22:15:44.852Z,14.00
2019-02-14T22:18:14.242Z,14.10
2019-02-14T22:20:43.678Z,14.00
2019-02-14T22:23:13.092Z,14.00
2019-02-14T22:25:42.501Z,14.00
2019-02-14T22:28:11.969Z,14.00
2019-02-14T22:30:41.359Z,13.90
2019-02-14T22:33:10.772Z,13.90
2019-02-14T22:35:40.131Z,13.90
2019-02-14T22:38:09.441Z,13.90
2019-02-14T22:40:39.214Z,14.00
2019-02-14T22:43:08.779Z,14.00
2019-02-14T22:45:38.135Z,14.00
2019-02-14T22:48:07.527Z,14.00
2019-02-14T22:50:37.087Z,13.90
2019-02-14T22:53:06.534Z,13.90
2019-02-14T22:55:36.031Z,13.90
2019-02-14T22:58:05.463Z,14.00
2019-02-14T23:00:38.392Z,13.90
2019-02-14T23:03:08.815Z,13.90
2019-02-14T23:05:38.140Z,13.90
2019-02-14T23:08:07.856Z,13.90
2019-02-14T23:10:37.239Z,13.90
2019-02-14T23:13:06.710Z,13.90
2019-02-14T23:15:36.247Z,13.90
2019-02-14T23:18:06.175Z,13.90
2019-02-14T23:20:35.573Z,14.00
2019-02-14T23:23:04.964Z,14.00
2019-02-14T23:25:34.492Z,13.90
2019-02-14T23:28:03.961Z,13.90
2019-02-14T23:30:33.302Z,13.90
2019-02-14T23:33:02.850Z,14.00
2019-02-14T23:35:32.617Z,13.90
2019-02-14T23:38:02.021Z,14.00
2019-02-14T23:40:31.481Z,14.00
2019-02-14T23:43:04.847Z,13.90
2019-02-14T23:45:32.073Z,14.00
2019-02-14T23:48:01.477Z,13.90
2019-02-14T23:50:30.805Z,13.90
2019-02-14T23:53:00.241Z,13.90
2019-02-14T23:55:29.631Z,14.00
2019-02-14T23:57:59.369Z,13.90
